sensor_id;sensor_type;location;lat;lon;timestamp;temperature;humidity
77865;DHT22;67061;48.524;9.040;2023-07-20T00:01:11;19.00;64.30
77865;DHT22;67061;48.524;9.040;2023-07-20T00:03:58;19.00;64.30
77865;DHT22;67061;48.524;9.040;2023-07-20T00:06:46;19.00;64.40
77865;DHT22;67061;48.524;9.040;2023-07-20T00:09:34;19.00;64.70
77865;DHT22;67061;48.524;9.040;2023-07-20T00:12:21;19.00;64.40
77865;DHT22;67061;48.524;9.040;2023-07-20T00:15:09;19.00;64.10
77865;DHT22;67061;48.524;9.040;2023-07-20T00:17:56;18.90;64.10
77865;DHT22;67061;48.524;9.040;2023-07-20T00:20:43;18.90;64.20
77865;DHT22;67061;48.524;9.040;2023-07-20T00:23:31;18.80;64.60
77865;DHT22;67061;48.524;9.040;2023-07-20T00:26:19;18.80;64.30
77865;DHT22;67061;48.524;9.040;2023-07-20T00:29:06;18.90;64.50
77865;DHT22;67061;48.524;9.040;2023-07-20T00:31:54;18.80;63.90
77865;DHT22;67061;48.524;9.040;2023-07-20T00:34:42;18.80;63.40
77865;DHT22;67061;48.524;9.040;2023-07-20T00:37:29;18.80;63.20
77865;DHT22;67061;48.524;9.040;2023-07-20T00:40:16;18.70;63.20
77865;DHT22;67061;48.524;9.040;2023-07-20T00:43:05;18.70;62.80
77865;DHT22;67061;48.524;9.040;2023-07-20T00:45:52;18.60;62.20
77865;DHT22;67061;48.524;9.040;2023-07-20T00:48:40;18.60;62.50
77865;DHT22;67061;48.524;9.040;2023-07-20T00:51:27;18.50;62.20
77865;DHT22;67061;48.524;9.040;2023-07-20T00:54:15;18.50;61.70
77865;DHT22;67061;48.524;9.040;2023-07-20T00:57:04;18.40;62.40
77865;DHT22;67061;48.524;9.040;2023-07-20T00:59:54;18.30;62.40
77865;DHT22;67061;48.524;9.040;2023-07-20T01:02:41;18.30;62.40
77865;DHT22;67061;48.524;9.040;2023-07-20T01:05:36;18.20;63.70
77865;DHT22;67061;48.524;9.040;2023-07-20T01:08:31;18.20;64.00
77865;DHT22;67061;48.524;9.040;2023-07-20T01:11:26;18.20;64.40
77865;DHT22;67061;48.524;9.040;2023-07-20T01:14:16;18.10;64.80
77865;DHT22;67061;48.524;9.040;2023-07-20T01:17:05;18.00;65.20
77865;DHT22;67061;48.524;9.040;2023-07-20T01:19:52;18.00;66.10
77865;DHT22;67061;48.524;9.040;2023-07-20T01:22:55;17.90;65.80
77865;DHT22;67061;48.524;9.040;2023-07-20T01:29:21;17.80;66.80
77865;DHT22;67061;48.524;9.040;2023-07-20T01:32:11;17.60;67.60
77865;DHT22;67061;48.524;9.040;2023-07-20T01:34:59;17.60;66.60
77865;DHT22;67061;48.524;9.040;2023-07-20T01:37:49;17.50;67.80
77865;DHT22;67061;48.524;9.040;2023-07-20T01:40:37;17.50;67.60
77865;DHT22;67061;48.524;9.040;2023-07-20T01:43:25;17.40;68.30
77865;DHT22;67061;48.524;9.040;2023-07-20T01:46:12;17.40;67.80
77865;DHT22;67061;48.524;9.040;2023-07-20T01:49:01;17.20;68.40
77865;DHT22;67061;48.524;9.040;2023-07-20T01:51:48;17.20;68.30
77865;DHT22;67061;48.524;9.040;2023-07-20T01:54:35;17.10;69.00
77865;DHT22;67061;48.524;9.040;2023-07-20T01:57:22;17.00;69.40
77865;DHT22;67061;48.524;9.040;2023-07-20T02:00:11;17.00;69.20
77865;DHT22;67061;48.524;9.040;2023-07-20T02:02:58;17.00;69.40
77865;DHT22;67061;48.524;9.040;2023-07-20T02:05:47;16.90;70.40
77865;DHT22;67061;48.524;9.040;2023-07-20T02:08:34;16.90;69.30
77865;DHT22;67061;48.524;9.040;2023-07-20T02:11:21;16.80;69.50
77865;DHT22;67061;48.524;9.040;2023-07-20T02:14:08;16.70;69.70
77865;DHT22;67061;48.524;9.040;2023-07-20T02:16:56;16.60;69.70
77865;DHT22;67061;48.524;9.040;2023-07-20T02:19:45;16.60;69.80
77865;DHT22;67061;48.524;9.040;2023-07-20T02:22:37;16.60;69.80
77865;DHT22;67061;48.524;9.040;2023-07-20T02:25:24;16.50;70.00
77865;DHT22;67061;48.524;9.040;2023-07-20T02:28:13;16.50;70.20
77865;DHT22;67061;48.524;9.040;2023-07-20T02:31:00;16.40;70.20
77865;DHT22;67061;48.524;9.040;2023-07-20T02:33:48;16.30;72.30
77865;DHT22;67061;48.524;9.040;2023-07-20T02:36:35;16.20;71.10
77865;DHT22;67061;48.524;9.040;2023-07-20T02:39:23;16.20;71.40
77865;DHT22;67061;48.524;9.040;2023-07-20T02:42:11;16.10;71.90
77865;DHT22;67061;48.524;9.040;2023-07-20T02:44:59;16.10;71.80
77865;DHT22;67061;48.524;9.040;2023-07-20T02:47:46;16.00;72.00
77865;DHT22;67061;48.524;9.040;2023-07-20T02:50:34;15.90;72.10
77865;DHT22;67061;48.524;9.040;2023-07-20T02:53:22;15.80;72.80
77865;DHT22;67061;48.524;9.040;2023-07-20T02:56:10;15.80;72.80
77865;DHT22;67061;48.524;9.040;2023-07-20T02:58:58;15.90;73.10
77865;DHT22;67061;48.524;9.040;2023-07-20T03:01:45;15.80;72.40
77865;DHT22;67061;48.524;9.040;2023-07-20T03:04:32;15.80;72.00
77865;DHT22;67061;48.524;9.040;2023-07-20T03:07:19;15.70;72.10
77865;DHT22;67061;48.524;9.040;2023-07-20T03:10:07;15.70;73.00
77865;DHT22;67061;48.524;9.040;2023-07-20T03:12:56;15.60;72.70
77865;DHT22;67061;48.524;9.040;2023-07-20T03:15:43;15.60;73.50
77865;DHT22;67061;48.524;9.040;2023-07-20T03:18:31;15.60;74.00
77865;DHT22;67061;48.524;9.040;2023-07-20T03:21:18;15.60;73.70
77865;DHT22;67061;48.524;9.040;2023-07-20T03:24:05;15.50;74.10
77865;DHT22;67061;48.524;9.040;2023-07-20T03:26:53;15.50;74.30
77865;DHT22;67061;48.524;9.040;2023-07-20T03:29:41;15.40;75.00
77865;DHT22;67061;48.524;9.040;2023-07-20T03:32:30;15.30;75.20
77865;DHT22;67061;48.524;9.040;2023-07-20T03:35:17;15.20;75.50
77865;DHT22;67061;48.524;9.040;2023-07-20T03:38:04;15.00;76.10
77865;DHT22;67061;48.524;9.040;2023-07-20T03:40:51;14.90;76.70
77865;DHT22;67061;48.524;9.040;2023-07-20T03:43:39;14.80;77.30
77865;DHT22;67061;48.524;9.040;2023-07-20T03:46:27;14.80;77.00
77865;DHT22;67061;48.524;9.040;2023-07-20T03:49:15;14.80;77.50
77865;DHT22;67061;48.524;9.040;2023-07-20T03:52:02;14.80;77.70
77865;DHT22;67061;48.524;9.040;2023-07-20T03:54:50;14.70;78.90
77865;DHT22;67061;48.524;9.040;2023-07-20T03:57:38;14.70;78.30
77865;DHT22;67061;48.524;9.040;2023-07-20T04:00:25;14.70;78.50
77865;DHT22;67061;48.524;9.040;2023-07-20T04:03:14;14.70;78.80
77865;DHT22;67061;48.524;9.040;2023-07-20T04:06:01;14.60;79.80
77865;DHT22;67061;48.524;9.040;2023-07-20T04:08:48;14.60;79.80
77865;DHT22;67061;48.524;9.040;2023-07-20T04:11:36;14.60;79.80
77865;DHT22;67061;48.524;9.040;2023-07-20T04:14:23;14.60;79.50
77865;DHT22;67061;48.524;9.040;2023-07-20T04:17:10;14.50;79.10
77865;DHT22;67061;48.524;9.040;2023-07-20T04:20:00;14.40;79.30
77865;DHT22;67061;48.524;9.040;2023-07-20T04:22:48;14.40;80.00
77865;DHT22;67061;48.524;9.040;2023-07-20T04:25:35;14.40;80.00
77865;DHT22;67061;48.524;9.040;2023-07-20T04:28:25;14.30;80.50
77865;DHT22;67061;48.524;9.040;2023-07-20T04:31:13;14.40;80.30
77865;DHT22;67061;48.524;9.040;2023-07-20T04:34:01;14.40;80.10
77865;DHT22;67061;48.524;9.040;2023-07-20T04:36:49;14.40;79.90
77865;DHT22;67061;48.524;9.040;2023-07-20T04:39:36;14.40;80.00
77865;DHT22;67061;48.524;9.040;2023-07-20T04:42:23;14.40;80.30
77865;DHT22;67061;48.524;9.040;2023-07-20T04:45:11;14.40;80.00
77865;DHT22;67061;48.524;9.040;2023-07-20T04:47:59;14.30;80.80
77865;DHT22;67061;48.524;9.040;2023-07-20T04:50:46;14.40;80.80
77865;DHT22;67061;48.524;9.040;2023-07-20T04:53:34;14.40;79.50
77865;DHT22;67061;48.524;9.040;2023-07-20T04:56:22;14.40;80.10
77865;DHT22;67061;48.524;9.040;2023-07-20T04:59:09;14.40;80.00
77865;DHT22;67061;48.524;9.040;2023-07-20T05:01:56;14.50;80.90
77865;DHT22;67061;48.524;9.040;2023-07-20T05:04:44;14.40;80.50
77865;DHT22;67061;48.524;9.040;2023-07-20T05:07:31;14.50;80.20
77865;DHT22;67061;48.524;9.040;2023-07-20T05:10:19;14.60;79.10
77865;DHT22;67061;48.524;9.040;2023-07-20T05:13:07;14.70;79.20
77865;DHT22;67061;48.524;9.040;2023-07-20T05:15:54;14.70;79.70
77865;DHT22;67061;48.524;9.040;2023-07-20T05:18:41;14.80;80.80
77865;DHT22;67061;48.524;9.040;2023-07-20T05:21:28;14.80;80.40
77865;DHT22;67061;48.524;9.040;2023-07-20T05:24:15;14.90;80.40
77865;DHT22;67061;48.524;9.040;2023-07-20T05:27:04;15.00;80.00
77865;DHT22;67061;48.524;9.040;2023-07-20T05:29:52;15.10;79.20
77865;DHT22;67061;48.524;9.040;2023-07-20T05:32:39;15.20;78.60
77865;DHT22;67061;48.524;9.040;2023-07-20T05:35:26;15.20;78.60
77865;DHT22;67061;48.524;9.040;2023-07-20T05:38:13;15.30;78.10
77865;DHT22;67061;48.524;9.040;2023-07-20T05:41:00;15.40;78.20
77865;DHT22;67061;48.524;9.040;2023-07-20T05:43:50;15.40;78.00
77865;DHT22;67061;48.524;9.040;2023-07-20T05:46:38;15.50;77.80
77865;DHT22;67061;48.524;9.040;2023-07-20T05:49:25;15.50;77.00
77865;DHT22;67061;48.524;9.040;2023-07-20T05:52:13;15.60;77.70
77865;DHT22;67061;48.524;9.040;2023-07-20T05:55:00;15.80;77.70
77865;DHT22;67061;48.524;9.040;2023-07-20T05:57:49;15.90;77.00
77865;DHT22;67061;48.524;9.040;2023-07-20T06:00:37;16.00;75.20
77865;DHT22;67061;48.524;9.040;2023-07-20T06:03:25;16.10;75.90
77865;DHT22;67061;48.524;9.040;2023-07-20T06:06:12;16.20;75.40
77865;DHT22;67061;48.524;9.040;2023-07-20T06:09:01;16.40;75.30
77865;DHT22;67061;48.524;9.040;2023-07-20T06:11:49;16.50;75.90
77865;DHT22;67061;48.524;9.040;2023-07-20T06:14:37;16.60;74.70
77865;DHT22;67061;48.524;9.040;2023-07-20T06:17:25;16.70;73.10
77865;DHT22;67061;48.524;9.040;2023-07-20T06:20:12;16.80;73.10
77865;DHT22;67061;48.524;9.040;2023-07-20T06:23:00;16.90;73.20
77865;DHT22;67061;48.524;9.040;2023-07-20T06:25:47;17.00;73.00
77865;DHT22;67061;48.524;9.040;2023-07-20T06:28:34;17.00;72.00
77865;DHT22;67061;48.524;9.040;2023-07-20T06:31:22;17.00;71.30
77865;DHT22;67061;48.524;9.040;2023-07-20T06:34:10;17.20;71.10
77865;DHT22;67061;48.524;9.040;2023-07-20T06:36:57;17.20;71.10
77865;DHT22;67061;48.524;9.040;2023-07-20T06:39:45;17.30;70.00
77865;DHT22;67061;48.524;9.040;2023-07-20T06:42:32;17.20;70.10
77865;DHT22;67061;48.524;9.040;2023-07-20T06:45:19;17.40;70.30
77865;DHT22;67061;48.524;9.040;2023-07-20T06:48:06;17.50;70.50
77865;DHT22;67061;48.524;9.040;2023-07-20T06:50:55;17.50;69.10
77865;DHT22;67061;48.524;9.040;2023-07-20T06:53:42;17.60;69.20
77865;DHT22;67061;48.524;9.040;2023-07-20T06:56:30;17.70;70.10
77865;DHT22;67061;48.524;9.040;2023-07-20T06:59:17;17.80;69.70
77865;DHT22;67061;48.524;9.040;2023-07-20T07:02:04;17.90;68.00
77865;DHT22;67061;48.524;9.040;2023-07-20T07:04:52;18.00;68.60
77865;DHT22;67061;48.524;9.040;2023-07-20T07:07:41;18.10;68.00
77865;DHT22;67061;48.524;9.040;2023-07-20T07:10:28;18.10;68.40
77865;DHT22;67061;48.524;9.040;2023-07-20T07:13:15;18.30;67.80
77865;DHT22;67061;48.524;9.040;2023-07-20T07:16:03;18.40;69.00
77865;DHT22;67061;48.524;9.040;2023-07-20T07:18:51;18.60;68.10
77865;DHT22;67061;48.524;9.040;2023-07-20T07:21:38;18.80;67.70
77865;DHT22;67061;48.524;9.040;2023-07-20T07:24:27;18.90;67.50
77865;DHT22;67061;48.524;9.040;2023-07-20T07:27:19;19.10;66.40
77865;DHT22;67061;48.524;9.040;2023-07-20T07:29:46;19.00;66.80
77865;DHT22;67061;48.524;9.040;2023-07-20T07:32:14;19.20;66.50
77865;DHT22;67061;48.524;9.040;2023-07-20T07:34:41;19.40;66.40
77865;DHT22;67061;48.524;9.040;2023-07-20T07:37:08;19.40;64.70
77865;DHT22;67061;48.524;9.040;2023-07-20T07:39:37;19.50;64.40
77865;DHT22;67061;48.524;9.040;2023-07-20T07:42:04;19.40;65.60
77865;DHT22;67061;48.524;9.040;2023-07-20T07:44:31;19.50;64.30
77865;DHT22;67061;48.524;9.040;2023-07-20T07:46:59;19.50;64.20
77865;DHT22;67061;48.524;9.040;2023-07-20T07:49:27;19.50;64.60
77865;DHT22;67061;48.524;9.040;2023-07-20T07:51:54;19.50;64.10
77865;DHT22;67061;48.524;9.040;2023-07-20T07:54:22;19.50;65.30
77865;DHT22;67061;48.524;9.040;2023-07-20T07:56:51;19.50;64.20
77865;DHT22;67061;48.524;9.040;2023-07-20T07:59:18;19.70;62.90
77865;DHT22;67061;48.524;9.040;2023-07-20T08:01:45;19.70;63.30
77865;DHT22;67061;48.524;9.040;2023-07-20T08:04:12;19.70;62.60
77865;DHT22;67061;48.524;9.040;2023-07-20T08:06:40;19.80;63.60
77865;DHT22;67061;48.524;9.040;2023-07-20T08:09:07;20.00;62.90
77865;DHT22;67061;48.524;9.040;2023-07-20T08:11:34;20.00;62.00
77865;DHT22;67061;48.524;9.040;2023-07-20T08:14:02;19.90;61.10
77865;DHT22;67061;48.524;9.040;2023-07-20T08:16:29;19.80;62.10
77865;DHT22;67061;48.524;9.040;2023-07-20T08:18:56;20.00;62.90
77865;DHT22;67061;48.524;9.040;2023-07-20T08:21:23;20.10;62.50
77865;DHT22;67061;48.524;9.040;2023-07-20T08:23:50;20.30;60.70
77865;DHT22;67061;48.524;9.040;2023-07-20T08:26:17;20.30;60.50
77865;DHT22;67061;48.524;9.040;2023-07-20T08:28:47;20.40;59.60
77865;DHT22;67061;48.524;9.040;2023-07-20T08:31:16;20.40;61.20
77865;DHT22;67061;48.524;9.040;2023-07-20T08:33:44;20.40;61.00
77865;DHT22;67061;48.524;9.040;2023-07-20T08:36:11;20.30;59.60
77865;DHT22;67061;48.524;9.040;2023-07-20T08:38:37;20.50;60.40
77865;DHT22;67061;48.524;9.040;2023-07-20T08:41:04;20.50;60.50
77865;DHT22;67061;48.524;9.040;2023-07-20T08:43:31;20.50;59.90
77865;DHT22;67061;48.524;9.040;2023-07-20T08:46:00;20.60;60.80
77865;DHT22;67061;48.524;9.040;2023-07-20T08:48:30;20.60;59.00
77865;DHT22;67061;48.524;9.040;2023-07-20T08:50:58;20.60;57.70
77865;DHT22;67061;48.524;9.040;2023-07-20T08:53:25;20.50;59.70
77865;DHT22;67061;48.524;9.040;2023-07-20T08:55:53;20.50;60.40
77865;DHT22;67061;48.524;9.040;2023-07-20T08:58:21;20.50;59.00
77865;DHT22;67061;48.524;9.040;2023-07-20T09:00:49;20.60;59.20
77865;DHT22;67061;48.524;9.040;2023-07-20T09:03:18;20.60;57.10
77865;DHT22;67061;48.524;9.040;2023-07-20T09:05:46;20.60;57.40
77865;DHT22;67061;48.524;9.040;2023-07-20T09:08:13;20.70;58.20
77865;DHT22;67061;48.524;9.040;2023-07-20T09:10:40;20.80;57.00
77865;DHT22;67061;48.524;9.040;2023-07-20T09:13:07;20.90;56.90
77865;DHT22;67061;48.524;9.040;2023-07-20T09:15:34;21.00;56.90
77865;DHT22;67061;48.524;9.040;2023-07-20T09:18:02;21.10;55.50
77865;DHT22;67061;48.524;9.040;2023-07-20T09:20:32;21.30;52.60
77865;DHT22;67061;48.524;9.040;2023-07-20T09:23:04;21.40;51.80
77865;DHT22;67061;48.524;9.040;2023-07-20T09:25:32;21.50;50.70
77865;DHT22;67061;48.524;9.040;2023-07-20T09:28:02;21.70;50.60
77865;DHT22;67061;48.524;9.040;2023-07-20T09:30:29;21.50;50.90
77865;DHT22;67061;48.524;9.040;2023-07-20T09:32:56;21.50;51.10
77865;DHT22;67061;48.524;9.040;2023-07-20T09:35:23;21.40;52.80
77865;DHT22;67061;48.524;9.040;2023-07-20T09:37:53;21.40;50.00
77865;DHT22;67061;48.524;9.040;2023-07-20T09:40:21;21.40;49.30
77865;DHT22;67061;48.524;9.040;2023-07-20T09:42:52;21.50;48.80
77865;DHT22;67061;48.524;9.040;2023-07-20T09:45:19;21.50;49.20
77865;DHT22;67061;48.524;9.040;2023-07-20T09:47:46;21.80;49.00
77865;DHT22;67061;48.524;9.040;2023-07-20T09:50:13;21.90;47.70
77865;DHT22;67061;48.524;9.040;2023-07-20T09:52:41;22.00;47.60
77865;DHT22;67061;48.524;9.040;2023-07-20T09:55:10;22.20;47.10
77865;DHT22;67061;48.524;9.040;2023-07-20T09:57:39;22.30;46.20
77865;DHT22;67061;48.524;9.040;2023-07-20T10:00:07;22.30;46.80
77865;DHT22;67061;48.524;9.040;2023-07-20T10:02:42;22.40;47.40
77865;DHT22;67061;48.524;9.040;2023-07-20T10:05:11;22.50;47.20
77865;DHT22;67061;48.524;9.040;2023-07-20T10:07:44;22.60;45.50
77865;DHT22;67061;48.524;9.040;2023-07-20T10:10:14;22.50;44.50
77865;DHT22;67061;48.524;9.040;2023-07-20T10:12:46;22.50;44.10
77865;DHT22;67061;48.524;9.040;2023-07-20T10:15:19;22.60;43.90
77865;DHT22;67061;48.524;9.040;2023-07-20T10:18:05;22.70;43.70
77865;DHT22;67061;48.524;9.040;2023-07-20T10:20:36;22.80;42.50
77865;DHT22;67061;48.524;9.040;2023-07-20T10:23:07;22.80;42.70
77865;DHT22;67061;48.524;9.040;2023-07-20T10:25:34;22.90;43.30
77865;DHT22;67061;48.524;9.040;2023-07-20T10:28:05;23.00;42.60
77865;DHT22;67061;48.524;9.040;2023-07-20T10:30:33;23.20;43.20
77865;DHT22;67061;48.524;9.040;2023-07-20T10:33:01;23.30;41.80
77865;DHT22;67061;48.524;9.040;2023-07-20T10:35:29;23.30;41.70
77865;DHT22;67061;48.524;9.040;2023-07-20T10:38:00;23.40;41.60
77865;DHT22;67061;48.524;9.040;2023-07-20T10:40:30;23.40;40.70
77865;DHT22;67061;48.524;9.040;2023-07-20T10:43:06;23.50;41.60
77865;DHT22;67061;48.524;9.040;2023-07-20T10:45:42;23.60;41.20
77865;DHT22;67061;48.524;9.040;2023-07-20T10:48:16;23.60;40.30
77865;DHT22;67061;48.524;9.040;2023-07-20T10:50:43;23.80;40.10
77865;DHT22;67061;48.524;9.040;2023-07-20T10:53:14;23.80;40.00
77865;DHT22;67061;48.524;9.040;2023-07-20T10:55:42;23.90;40.70
77865;DHT22;67061;48.524;9.040;2023-07-20T10:58:12;24.00;40.10
77865;DHT22;67061;48.524;9.040;2023-07-20T11:01:00;24.00;39.80
77865;DHT22;67061;48.524;9.040;2023-07-20T11:03:29;24.10;39.80
77865;DHT22;67061;48.524;9.040;2023-07-20T11:05:57;24.00;39.80
77865;DHT22;67061;48.524;9.040;2023-07-20T11:08:38;24.00;41.00
77865;DHT22;67061;48.524;9.040;2023-07-20T11:11:22;24.40;39.80
77865;DHT22;67061;48.524;9.040;2023-07-20T11:13:58;24.40;39.90
77865;DHT22;67061;48.524;9.040;2023-07-20T11:16:37;24.40;41.20
77865;DHT22;67061;48.524;9.040;2023-07-20T11:19:15;24.70;37.70
77865;DHT22;67061;48.524;9.040;2023-07-20T11:21:44;24.70;39.30
77865;DHT22;67061;48.524;9.040;2023-07-20T11:24:12;24.70;39.20
77865;DHT22;67061;48.524;9.040;2023-07-20T11:26:46;24.80;39.40
77865;DHT22;67061;48.524;9.040;2023-07-20T11:29:16;25.00;39.70
77865;DHT22;67061;48.524;9.040;2023-07-20T11:31:44;25.10;38.90
77865;DHT22;67061;48.524;9.040;2023-07-20T11:34:12;25.00;38.10
77865;DHT22;67061;48.524;9.040;2023-07-20T11:36:39;24.80;38.70
77865;DHT22;67061;48.524;9.040;2023-07-20T11:39:08;25.00;39.30
77865;DHT22;67061;48.524;9.040;2023-07-20T11:41:36;25.00;39.30
77865;DHT22;67061;48.524;9.040;2023-07-20T11:44:04;25.20;38.10
77865;DHT22;67061;48.524;9.040;2023-07-20T11:46:35;25.30;37.30
77865;DHT22;67061;48.524;9.040;2023-07-20T11:49:02;25.20;38.00
77865;DHT22;67061;48.524;9.040;2023-07-20T11:51:29;25.00;39.20
77865;DHT22;67061;48.524;9.040;2023-07-20T11:53:57;25.00;36.60
77865;DHT22;67061;48.524;9.040;2023-07-20T11:56:25;25.00;38.70
77865;DHT22;67061;48.524;9.040;2023-07-20T11:58:55;25.00;36.70
77865;DHT22;67061;48.524;9.040;2023-07-20T12:01:25;24.90;38.50
77865;DHT22;67061;48.524;9.040;2023-07-20T12:03:56;24.70;37.70
77865;DHT22;67061;48.524;9.040;2023-07-20T12:06:24;24.80;38.60
77865;DHT22;67061;48.524;9.040;2023-07-20T12:08:54;24.70;40.00
77865;DHT22;67061;48.524;9.040;2023-07-20T12:11:35;25.00;39.40
77865;DHT22;67061;48.524;9.040;2023-07-20T12:14:03;25.30;37.30
77865;DHT22;67061;48.524;9.040;2023-07-20T12:16:30;25.40;36.70
77865;DHT22;67061;48.524;9.040;2023-07-20T12:19:03;25.20;37.80
77865;DHT22;67061;48.524;9.040;2023-07-20T12:21:31;25.10;38.90
77865;DHT22;67061;48.524;9.040;2023-07-20T12:24:00;25.30;36.90
77865;DHT22;67061;48.524;9.040;2023-07-20T12:26:29;25.50;36.30
77865;DHT22;67061;48.524;9.040;2023-07-20T12:28:56;25.50;36.80
77865;DHT22;67061;48.524;9.040;2023-07-20T12:31:24;25.30;34.90
77865;DHT22;67061;48.524;9.040;2023-07-20T12:33:52;25.10;36.90
77865;DHT22;67061;48.524;9.040;2023-07-20T12:36:22;25.30;36.40
77865;DHT22;67061;48.524;9.040;2023-07-20T12:38:49;25.30;37.30
77865;DHT22;67061;48.524;9.040;2023-07-20T12:41:16;25.40;35.80
77865;DHT22;67061;48.524;9.040;2023-07-20T12:43:43;25.30;36.90
77865;DHT22;67061;48.524;9.040;2023-07-20T12:46:12;25.40;36.20
77865;DHT22;67061;48.524;9.040;2023-07-20T12:48:40;25.60;35.90
77865;DHT22;67061;48.524;9.040;2023-07-20T12:51:07;25.50;35.70
77865;DHT22;67061;48.524;9.040;2023-07-20T12:53:36;25.50;35.20
77865;DHT22;67061;48.524;9.040;2023-07-20T12:56:03;25.50;37.10
77865;DHT22;67061;48.524;9.040;2023-07-20T12:58:30;25.60;36.50
77865;DHT22;67061;48.524;9.040;2023-07-20T13:00:57;25.40;36.00
77865;DHT22;67061;48.524;9.040;2023-07-20T13:03:24;25.50;36.10
77865;DHT22;67061;48.524;9.040;2023-07-20T13:05:50;25.70;35.60
77865;DHT22;67061;48.524;9.040;2023-07-20T13:08:17;26.00;35.90
77865;DHT22;67061;48.524;9.040;2023-07-20T13:10:46;26.10;37.10
77865;DHT22;67061;48.524;9.040;2023-07-20T13:13:14;26.20;35.00
77865;DHT22;67061;48.524;9.040;2023-07-20T13:15:42;26.10;33.80
77865;DHT22;67061;48.524;9.040;2023-07-20T13:18:10;26.10;34.10
77865;DHT22;67061;48.524;9.040;2023-07-20T13:20:36;26.00;33.70
77865;DHT22;67061;48.524;9.040;2023-07-20T13:23:04;25.90;34.50
77865;DHT22;67061;48.524;9.040;2023-07-20T13:25:31;25.90;34.50
77865;DHT22;67061;48.524;9.040;2023-07-20T13:27:59;26.00;35.20
77865;DHT22;67061;48.524;9.040;2023-07-20T13:30:26;25.90;33.20
77865;DHT22;67061;48.524;9.040;2023-07-20T13:32:53;25.70;34.40
77865;DHT22;67061;48.524;9.040;2023-07-20T13:35:20;25.80;33.70
77865;DHT22;67061;48.524;9.040;2023-07-20T13:37:46;25.80;34.50
77865;DHT22;67061;48.524;9.040;2023-07-20T13:40:15;25.80;34.60
77865;DHT22;67061;48.524;9.040;2023-07-20T13:42:44;25.80;34.20
77865;DHT22;67061;48.524;9.040;2023-07-20T13:45:12;26.00;33.50
77865;DHT22;67061;48.524;9.040;2023-07-20T13:47:39;26.10;33.70
77865;DHT22;67061;48.524;9.040;2023-07-20T13:50:06;25.90;34.60
77865;DHT22;67061;48.524;9.040;2023-07-20T13:52:33;26.00;34.80
77865;DHT22;67061;48.524;9.040;2023-07-20T13:55:01;26.00;34.50
77865;DHT22;67061;48.524;9.040;2023-07-20T13:57:28;26.00;35.00
77865;DHT22;67061;48.524;9.040;2023-07-20T13:59:54;26.20;35.20
77865;DHT22;67061;48.524;9.040;2023-07-20T14:02:23;26.20;34.10
77865;DHT22;67061;48.524;9.040;2023-07-20T14:04:50;26.10;33.50
77865;DHT22;67061;48.524;9.040;2023-07-20T14:07:17;26.00;34.30
77865;DHT22;67061;48.524;9.040;2023-07-20T14:09:44;26.00;35.10
77865;DHT22;67061;48.524;9.040;2023-07-20T14:12:10;26.20;34.10
77865;DHT22;67061;48.524;9.040;2023-07-20T14:14:39;26.40;33.60
77865;DHT22;67061;48.524;9.040;2023-07-20T14:17:06;26.20;31.50
77865;DHT22;67061;48.524;9.040;2023-07-20T14:19:37;26.00;34.40
77865;DHT22;67061;48.524;9.040;2023-07-20T14:22:04;26.00;34.00
77865;DHT22;67061;48.524;9.040;2023-07-20T14:24:31;26.00;34.50
77865;DHT22;67061;48.524;9.040;2023-07-20T14:26:58;26.20;34.70
77865;DHT22;67061;48.524;9.040;2023-07-20T14:29:26;26.10;33.50
77865;DHT22;67061;48.524;9.040;2023-07-20T14:31:53;25.90;34.90
77865;DHT22;67061;48.524;9.040;2023-07-20T14:34:20;26.00;34.70
77865;DHT22;67061;48.524;9.040;2023-07-20T14:36:48;26.00;35.30
77865;DHT22;67061;48.524;9.040;2023-07-20T14:39:16;25.90;34.60
77865;DHT22;67061;48.524;9.040;2023-07-20T14:41:43;26.00;35.50
77865;DHT22;67061;48.524;9.040;2023-07-20T14:44:10;26.20;34.50
77865;DHT22;67061;48.524;9.040;2023-07-20T14:46:37;26.30;33.80
77865;DHT22;67061;48.524;9.040;2023-07-20T14:49:04;26.20;35.40
77865;DHT22;67061;48.524;9.040;2023-07-20T14:51:31;26.10;35.50
77865;DHT22;67061;48.524;9.040;2023-07-20T14:54:00;25.90;35.20
77865;DHT22;67061;48.524;9.040;2023-07-20T14:56:27;26.00;35.20
77865;DHT22;67061;48.524;9.040;2023-07-20T14:58:54;26.20;35.50
77865;DHT22;67061;48.524;9.040;2023-07-20T15:01:21;26.20;35.00
77865;DHT22;67061;48.524;9.040;2023-07-20T15:03:48;26.40;35.40
77865;DHT22;67061;48.524;9.040;2023-07-20T15:06:18;26.30;34.20
77865;DHT22;67061;48.524;9.040;2023-07-20T15:08:45;26.20;35.30
77865;DHT22;67061;48.524;9.040;2023-07-20T15:11:13;26.30;33.70
77865;DHT22;67061;48.524;9.040;2023-07-20T15:13:40;26.30;34.10
77865;DHT22;67061;48.524;9.040;2023-07-20T15:16:08;26.40;35.80
77865;DHT22;67061;48.524;9.040;2023-07-20T15:18:36;26.60;34.60
77865;DHT22;67061;48.524;9.040;2023-07-20T15:21:03;26.60;33.40
77865;DHT22;67061;48.524;9.040;2023-07-20T15:23:30;26.60;34.40
77865;DHT22;67061;48.524;9.040;2023-07-20T15:25:57;26.70;34.40
77865;DHT22;67061;48.524;9.040;2023-07-20T15:28:25;26.60;33.90
77865;DHT22;67061;48.524;9.040;2023-07-20T15:30:58;26.70;34.70
77865;DHT22;67061;48.524;9.040;2023-07-20T15:33:25;26.40;34.50
77865;DHT22;67061;48.524;9.040;2023-07-20T15:35:52;26.40;35.50
77865;DHT22;67061;48.524;9.040;2023-07-20T15:38:19;26.50;34.80
77865;DHT22;67061;48.524;9.040;2023-07-20T15:40:47;26.60;34.20
77865;DHT22;67061;48.524;9.040;2023-07-20T15:43:15;26.60;33.90
77865;DHT22;67061;48.524;9.040;2023-07-20T15:45:47;26.60;33.10
77865;DHT22;67061;48.524;9.040;2023-07-20T15:48:15;26.30;33.80
77865;DHT22;67061;48.524;9.040;2023-07-20T15:50:42;26.10;34.20
77865;DHT22;67061;48.524;9.040;2023-07-20T15:53:10;26.20;34.50
77865;DHT22;67061;48.524;9.040;2023-07-20T15:55:36;26.20;33.60
77865;DHT22;67061;48.524;9.040;2023-07-20T15:58:03;26.00;34.10
77865;DHT22;67061;48.524;9.040;2023-07-20T16:00:30;26.00;34.60
77865;DHT22;67061;48.524;9.040;2023-07-20T16:02:58;26.00;35.70
77865;DHT22;67061;48.524;9.040;2023-07-20T16:05:25;26.10;34.30
77865;DHT22;67061;48.524;9.040;2023-07-20T16:07:52;26.00;34.60
77865;DHT22;67061;48.524;9.040;2023-07-20T16:10:19;26.00;34.80
77865;DHT22;67061;48.524;9.040;2023-07-20T16:12:46;26.00;34.80
77865;DHT22;67061;48.524;9.040;2023-07-20T16:15:13;26.00;35.10
77865;DHT22;67061;48.524;9.040;2023-07-20T16:17:40;25.60;36.00
77865;DHT22;67061;48.524;9.040;2023-07-20T16:20:09;25.60;36.30
77865;DHT22;67061;48.524;9.040;2023-07-20T16:22:36;25.50;35.70
77865;DHT22;67061;48.524;9.040;2023-07-20T16:25:04;25.60;36.20
77865;DHT22;67061;48.524;9.040;2023-07-20T16:27:31;25.60;35.70
77865;DHT22;67061;48.524;9.040;2023-07-20T16:29:58;25.50;36.70
77865;DHT22;67061;48.524;9.040;2023-07-20T16:32:25;25.60;36.80